Main page
METAR-TAF:

METAR-TAF

Airports :

Harare, Zimbabwe

Harare International Airport

latitude: 17-55S, longitude: 031-08E, elevation: 1479 m

Current weather observation

The report was made 1 hour and 0 minutes ago, at 22:00 UTC
Wind 4 kt from the East/Southeast
Temperature 13°C
Humidity 51%
Pressure 1022 hPa
Visibility 10 km or more
no clouds below 1500 m and no cumulonimbus

METAR: FVHA 232200Z 12004KT CAVOK 13/03 Q1022 NOSIG

Time: 01:00 (23:00 UTC)

Forecast

The report was made 7 hours and 0 minutes ago, at 16:00 UTC
Forecast valid from 23 at 18 UTC to 24 at 24 UTC
Wind 6 kt from the South/Southwest
Visibility 10 km or more
no clouds below 1500 m and no cumulonimbus

TAF: FVHA 231600Z 2318/2424 21006KT CAVOK

Weather observations and forecasts of more than 4000 airports (METAR and TAF reports).

The available stations are represented by yellow and red dots on the map.

Hover mouse over dot to see the name of the station.

Then click to see weather observations and forecasts.

To change the map : click on the green buttons with a black cross to zoom in, on the green button with a dash to zoom out, or on the green arrows for adjacent maps.


METAR-TAF: